createdAt,value
2022-12-22T00:00:22.845Z,29.47
2022-12-22T00:03:08.872Z,25.53
2022-12-22T00:05:55.328Z,24.90
2022-12-22T00:08:41.713Z,24.87
2022-12-22T00:11:32.056Z,21.90
2022-12-22T00:14:18.622Z,20.30
2022-12-22T00:17:05.806Z,17.70
2022-12-22T00:19:54.476Z,13.70
2022-12-22T00:22:45.278Z,14.77
2022-12-22T00:25:34.702Z,13.17
2022-12-22T00:28:24.412Z,16.67
2022-12-22T00:31:10.551Z,19.67
2022-12-22T00:33:57.872Z,19.03
2022-12-22T00:36:44.008Z,16.03
2022-12-22T00:39:32.770Z,15.60
2022-12-22T00:42:18.860Z,18.50
2022-12-22T00:45:05.048Z,16.70
2022-12-22T00:47:51.328Z,13.93
2022-12-22T00:50:38.073Z,15.40
2022-12-22T00:53:24.416Z,13.47
2022-12-22T00:56:10.688Z,13.13
2022-12-22T00:58:57.025Z,13.00
2022-12-22T01:01:43.511Z,13.47
2022-12-22T01:04:30.155Z,19.07
2022-12-22T01:07:16.952Z,18.57
2022-12-22T01:10:08.083Z,17.23
2022-12-22T01:12:57.372Z,19.00
2022-12-22T01:15:46.087Z,16.27
2022-12-22T01:18:32.931Z,14.97
2022-12-22T01:21:18.968Z,13.23
2022-12-22T01:24:05.756Z,12.07
2022-12-22T01:26:51.904Z,11.83
2022-12-22T01:29:38.063Z,12.53
2022-12-22T01:32:33.467Z,13.13
2022-12-22T01:35:19.502Z,12.43
2022-12-22T01:38:05.494Z,11.20
2022-12-22T01:40:51.502Z,11.07
2022-12-22T01:43:46.318Z,12.40
2022-12-22T01:46:47.476Z,10.30
2022-12-22T01:49:40.257Z,10.73
2022-12-22T01:52:29.898Z,9.20
2022-12-22T01:55:23.358Z,10.50
2022-12-22T01:58:10.096Z,10.47
2022-12-22T02:00:56.089Z,12.20
2022-12-22T02:03:42.321Z,21.53
2022-12-22T02:06:59.495Z,20.90
2022-12-22T02:10:08.264Z,18.43
2022-12-22T02:13:32.593Z,13.97
2022-12-22T02:16:29.571Z,12.60
2022-12-22T02:20:34.315Z,12.60
2022-12-22T02:23:53.825Z,12.03
2022-12-22T02:26:56.425Z,11.70
2022-12-22T02:29:52.952Z,11.23
2022-12-22T02:32:38.844Z,10.90
2022-12-22T02:35:34.095Z,11.73
2022-12-22T02:38:45.896Z,13.53
2022-12-22T02:41:58.167Z,11.23
2022-12-22T02:45:09.699Z,11.37
2022-12-22T02:48:09.469Z,12.03
2022-12-22T02:51:11.305Z,11.83
2022-12-22T02:53:59.212Z,12.23
2022-12-22T02:56:45.776Z,11.13
2022-12-22T02:59:32.040Z,10.67
2022-12-22T03:02:18.375Z,10.37
2022-12-22T03:05:04.759Z,11.50
2022-12-22T03:07:50.834Z,11.10
2022-12-22T03:10:36.802Z,11.60
2022-12-22T03:13:22.737Z,13.33
2022-12-22T03:16:08.634Z,12.43
2022-12-22T03:18:55.196Z,13.37
2022-12-22T03:21:41.497Z,14.20
2022-12-22T03:24:27.762Z,14.23
2022-12-22T03:26:55.377Z,15.30
2022-12-22T03:29:22.940Z,14.23
2022-12-22T03:31:50.494Z,14.87
2022-12-22T03:34:18.203Z,14.50
2022-12-22T03:36:45.825Z,14.03
2022-12-22T03:39:14.771Z,14.03
2022-12-22T03:42:00.820Z,14.73
2022-12-22T03:44:46.680Z,12.70
2022-12-22T03:47:14.412Z,18.60
2022-12-22T03:49:41.976Z,26.10
2022-12-22T03:52:10.178Z,24.53
2022-12-22T03:54:37.645Z,22.57
2022-12-22T03:57:05.191Z,21.70
2022-12-22T03:59:32.756Z,23.17
2022-12-22T04:02:00.504Z,27.43
2022-12-22T04:04:28.174Z,24.80
2022-12-22T04:06:56.369Z,19.97
2022-12-22T04:09:24.985Z,27.23
2022-12-22T04:12:11.414Z,30.70
2022-12-22T04:14:38.881Z,29.47
2022-12-22T04:17:09.800Z,23.57
2022-12-22T04:19:37.380Z,20.27
2022-12-22T04:22:05.318Z,21.60
2022-12-22T04:24:32.785Z,20.47
2022-12-22T04:27:00.488Z,20.07
2022-12-22T04:29:28.017Z,19.67
2022-12-22T04:31:58.699Z,17.33
2022-12-22T04:34:26.308Z,16.63
2022-12-22T04:37:04.441Z,16.07
2022-12-22T04:39:44.796Z,16.10
2022-12-22T04:42:12.337Z,15.77
2022-12-22T04:44:39.908Z,16.10
2022-12-22T04:47:07.610Z,18.90
2022-12-22T04:49:35.071Z,22.70
2022-12-22T04:52:02.581Z,24.83
2022-12-22T04:54:30.212Z,29.73
2022-12-22T04:56:57.900Z,30.77
2022-12-22T04:59:25.606Z,26.87
2022-12-22T05:01:53.154Z,25.43
2022-12-22T05:04:23.822Z,22.93
2022-12-22T05:06:51.641Z,23.67
2022-12-22T05:09:19.079Z,30.60
2022-12-22T05:11:46.604Z,32.90
2022-12-22T05:14:14.176Z,27.43
2022-12-22T05:16:41.740Z,25.83
2022-12-22T05:19:09.382Z,26.73
2022-12-22T05:21:36.915Z,24.77
2022-12-22T05:24:04.833Z,25.00
2022-12-22T05:26:32.306Z,23.97
2022-12-22T05:29:00.181Z,24.97
2022-12-22T05:31:27.863Z,23.83
2022-12-22T05:33:55.869Z,23.97
2022-12-22T05:36:23.308Z,23.33
2022-12-22T05:38:50.803Z,24.30
2022-12-22T05:41:18.226Z,23.23
2022-12-22T05:43:45.710Z,21.73
2022-12-22T05:46:13.234Z,19.73
2022-12-22T05:48:41.013Z,19.47
2022-12-22T05:51:09.885Z,18.20
2022-12-22T05:53:38.504Z,16.33
2022-12-22T05:56:07.252Z,16.50
2022-12-22T05:58:37.711Z,16.77
2022-12-22T06:01:05.956Z,15.93
2022-12-22T06:03:35.009Z,16.40
2022-12-22T06:06:02.831Z,15.20
2022-12-22T06:08:30.471Z,16.93
2022-12-22T06:10:59.431Z,15.47
2022-12-22T06:13:29.908Z,16.13
2022-12-22T06:15:57.492Z,15.90
2022-12-22T06:18:25.156Z,15.47
2022-12-22T06:20:53.654Z,14.77
2022-12-22T06:23:22.470Z,12.13
2022-12-22T06:26:03.095Z,10.87
2022-12-22T06:28:31.190Z,10.13
2022-12-22T06:30:59.510Z,8.73
2022-12-22T06:33:27.059Z,7.93
2022-12-22T06:35:58.959Z,6.97
2022-12-22T06:38:28.610Z,7.33
2022-12-22T06:40:56.882Z,9.20
2022-12-22T06:43:24.618Z,10.50
2022-12-22T06:45:52.708Z,13.03
2022-12-22T06:48:20.746Z,18.90
2022-12-22T06:50:48.331Z,27.50
2022-12-22T06:53:19.358Z,35.97
2022-12-22T06:55:46.963Z,34.87
2022-12-22T06:58:14.604Z,36.43
2022-12-22T07:00:43.402Z,37.23
2022-12-22T07:03:11.199Z,42.67
2022-12-22T07:05:39.003Z,42.07
2022-12-22T07:08:09.171Z,30.00
2022-12-22T07:10:55.817Z,20.20
2022-12-22T07:13:24.525Z,17.63
2022-12-22T07:16:00.043Z,12.53
2022-12-22T07:18:32.217Z,11.13
2022-12-22T07:21:02.332Z,11.47
2022-12-22T07:23:30.740Z,10.00
2022-12-22T07:25:59.154Z,12.03
2022-12-22T07:28:26.911Z,14.90
2022-12-22T07:30:56.751Z,15.73
2022-12-22T07:33:25.372Z,14.07
2022-12-22T07:36:15.802Z,13.90
2022-12-22T07:38:48.494Z,13.23
2022-12-22T07:41:37.539Z,13.00
2022-12-22T07:44:07.731Z,11.23
2022-12-22T07:46:38.881Z,11.40
2022-12-22T07:49:28.972Z,11.03
2022-12-22T07:52:01.939Z,11.43
2022-12-22T07:54:30.175Z,9.97
2022-12-22T07:56:58.260Z,10.13
2022-12-22T07:59:25.810Z,10.83
2022-12-22T08:01:53.543Z,10.40
2022-12-22T08:04:23.272Z,9.90
2022-12-22T08:06:50.900Z,9.90
2022-12-22T08:09:21.744Z,13.47
2022-12-22T08:11:50.277Z,15.43
2022-12-22T08:14:17.894Z,12.43
2022-12-22T08:16:45.475Z,10.83
2022-12-22T08:19:14.035Z,10.47
2022-12-22T08:21:44.193Z,10.67
2022-12-22T08:24:17.740Z,25.97
2022-12-22T08:26:51.211Z,11.53
2022-12-22T08:29:26.731Z,11.07
2022-12-22T08:31:56.059Z,10.17
2022-12-22T08:34:23.666Z,10.07
2022-12-22T08:36:55.508Z,11.93
2022-12-22T08:39:24.954Z,11.17
2022-12-22T08:41:52.791Z,10.93
2022-12-22T08:44:25.036Z,10.47
2022-12-22T08:46:54.490Z,9.63
2022-12-22T08:49:23.354Z,11.20
2022-12-22T08:51:51.463Z,10.20
2022-12-22T08:54:19.632Z,15.17
2022-12-22T08:56:47.299Z,12.43
2022-12-22T08:59:15.625Z,10.70
2022-12-22T09:01:48.212Z,9.73
2022-12-22T09:04:19.079Z,9.43
2022-12-22T09:06:46.881Z,9.03
2022-12-22T09:09:16.638Z,9.97
2022-12-22T09:11:44.976Z,9.27
2022-12-22T09:14:13.616Z,10.13
2022-12-22T09:16:41.520Z,9.03
2022-12-22T09:19:09.463Z,9.47
2022-12-22T09:21:38.161Z,8.67
2022-12-22T09:24:07.689Z,9.47
2022-12-22T09:26:35.901Z,9.47
2022-12-22T09:29:04.235Z,10.27
2022-12-22T09:31:32.496Z,11.03
2022-12-22T09:34:00.444Z,9.87
2022-12-22T09:36:31.719Z,9.80
2022-12-22T09:38:59.597Z,9.53
2022-12-22T09:41:43.814Z,10.27
2022-12-22T09:44:33.092Z,9.87
2022-12-22T09:47:04.820Z,10.77
2022-12-22T09:49:32.551Z,10.30
2022-12-22T09:52:03.719Z,9.77
2022-12-22T09:54:32.038Z,9.90
2022-12-22T09:56:59.836Z,10.10
2022-12-22T09:59:30.226Z,10.63
2022-12-22T10:02:32.973Z,10.60
2022-12-22T10:05:45.296Z,13.47
2022-12-22T10:08:17.020Z,11.50
2022-12-22T10:10:44.569Z,12.10
2022-12-22T10:13:19.688Z,13.07
2022-12-22T10:15:48.118Z,12.73
2022-12-22T10:18:26.303Z,13.93
2022-12-22T10:21:11.878Z,14.00
2022-12-22T10:23:45.451Z,14.40
2022-12-22T10:26:27.989Z,15.57
2022-12-22T10:29:18.370Z,18.40
2022-12-22T10:32:04.433Z,18.93
2022-12-22T10:34:32.633Z,18.17
2022-12-22T10:37:06.194Z,17.67
2022-12-22T10:39:40.680Z,17.80
2022-12-22T10:42:13.718Z,18.70
2022-12-22T10:44:48.018Z,15.40
2022-12-22T10:47:20.574Z,14.53
2022-12-22T10:52:31.035Z,14.30
2022-12-22T10:55:29.339Z,13.80
2022-12-22T10:58:16.066Z,14.27
2022-12-22T11:00:45.212Z,15.97
2022-12-22T11:03:22.612Z,14.23
2022-12-22T11:05:52.818Z,13.67
2022-12-22T11:08:21.945Z,14.43
2022-12-22T11:11:19.216Z,12.57
2022-12-22T11:14:23.357Z,12.07
2022-12-22T11:17:04.184Z,11.43
2022-12-22T11:19:34.506Z,12.93
2022-12-22T11:22:38.023Z,14.63
2022-12-22T11:25:37.913Z,11.83
2022-12-22T11:28:21.362Z,11.57
2022-12-22T11:31:12.885Z,12.00
2022-12-22T11:34:06.433Z,12.67
2022-12-22T11:37:10.181Z,12.47
2022-12-22T11:39:46.243Z,12.40
2022-12-22T11:42:55.472Z,9.97
2022-12-22T11:45:48.563Z,10.90
2022-12-22T11:48:53.603Z,10.70
2022-12-22T11:51:39.856Z,9.93
2022-12-22T11:54:32.749Z,9.37
2022-12-22T11:57:40.269Z,9.37
2022-12-22T12:00:11.022Z,8.23
2022-12-22T12:03:19.528Z,7.53
2022-12-22T12:06:54.246Z,7.83
2022-12-22T12:10:16.387Z,7.13
2022-12-22T12:12:56.811Z,5.13
2022-12-22T12:15:31.884Z,4.97
2022-12-22T12:18:52.685Z,5.13
2022-12-22T12:21:45.835Z,6.07
2022-12-22T12:24:25.439Z,6.57
2022-12-22T12:27:26.847Z,7.33
2022-12-22T12:33:36.806Z,7.40
2022-12-22T12:36:12.454Z,8.20
2022-12-22T12:39:08.825Z,7.63
2022-12-22T12:41:51.734Z,8.30
2022-12-22T12:44:25.741Z,7.70
2022-12-22T12:46:59.893Z,9.00
2022-12-22T12:49:36.290Z,9.80
2022-12-22T12:52:09.372Z,15.20
2022-12-22T12:54:43.385Z,9.17
2022-12-22T12:57:30.385Z,10.63
2022-12-22T13:00:00.410Z,10.93
2022-12-22T13:02:28.302Z,11.63
2022-12-22T13:05:02.928Z,11.37
2022-12-22T13:08:07.770Z,12.17
2022-12-22T13:10:55.120Z,11.73
2022-12-22T13:13:25.471Z,12.83
2022-12-22T13:16:02.367Z,13.07
2022-12-22T13:18:40.739Z,13.60
2022-12-22T13:21:52.175Z,13.83
2022-12-22T13:24:30.115Z,12.77
2022-12-22T13:27:05.287Z,12.13
2022-12-22T13:29:46.906Z,11.57
2022-12-22T13:32:30.486Z,13.13
2022-12-22T13:35:47.848Z,11.77
2022-12-22T13:38:33.176Z,12.17
2022-12-22T13:41:04.894Z,11.93
2022-12-22T13:43:33.884Z,11.93
2022-12-22T13:46:04.328Z,12.23
2022-12-22T13:48:43.610Z,11.37
2022-12-22T13:51:22.212Z,12.47
2022-12-22T13:54:08.371Z,11.27
2022-12-22T13:56:47.476Z,11.03
2022-12-22T13:59:43.625Z,10.30
2022-12-22T14:02:18.600Z,9.77
2022-12-22T14:05:06.287Z,10.43
2022-12-22T14:07:34.174Z,8.93
2022-12-22T14:10:01.803Z,9.27
2022-12-22T14:12:42.760Z,10.03
2022-12-22T14:15:18.897Z,9.10
2022-12-22T14:17:53.930Z,9.07
2022-12-22T14:20:35.764Z,9.27
2022-12-22T14:23:27.083Z,8.73
2022-12-22T14:25:56.859Z,9.27
2022-12-22T14:28:42.904Z,9.33
2022-12-22T14:31:13.500Z,11.20
2022-12-22T14:33:57.238Z,10.40
2022-12-22T14:36:26.984Z,8.73
2022-12-22T14:39:07.143Z,10.87
2022-12-22T14:41:53.469Z,10.07
2022-12-22T14:44:43.998Z,10.50
2022-12-22T14:47:20.550Z,11.53
2022-12-22T14:49:57.024Z,11.50
2022-12-22T14:52:45.438Z,12.20
2022-12-22T14:55:34.648Z,10.50
2022-12-22T14:58:11.341Z,11.23
2022-12-22T15:00:46.228Z,11.27
2022-12-22T15:03:37.461Z,83.67
2022-12-22T15:06:25.531Z,23.00
2022-12-22T15:09:07.589Z,21.57
2022-12-22T15:11:41.280Z,30.07
2022-12-22T15:14:26.169Z,18.63
2022-12-22T15:17:01.819Z,29.23
2022-12-22T15:19:39.682Z,31.20
2022-12-22T15:22:11.985Z,28.30
2022-12-22T15:24:39.701Z,27.30
2022-12-22T15:27:07.230Z,27.43
2022-12-22T15:29:34.940Z,26.23
2022-12-22T15:32:02.508Z,25.23
2022-12-22T15:34:32.681Z,26.30
2022-12-22T15:37:00.488Z,27.67
2022-12-22T15:39:28.124Z,25.57
2022-12-22T15:41:55.857Z,25.27
2022-12-22T15:44:23.469Z,26.53
2022-12-22T15:46:58.879Z,27.93
2022-12-22T15:49:29.898Z,26.37
2022-12-22T15:52:02.051Z,27.93
2022-12-22T15:54:33.203Z,25.93
2022-12-22T15:57:01.816Z,28.67
2022-12-22T15:59:31.090Z,27.87
2022-12-22T16:02:01.807Z,26.30
2022-12-22T16:04:30.579Z,28.40
2022-12-22T16:06:59.831Z,30.27
2022-12-22T16:09:38.189Z,32.93
2022-12-22T16:12:18.989Z,34.83
2022-12-22T16:14:53.449Z,37.57
2022-12-22T16:17:26.240Z,34.53
2022-12-22T16:19:55.778Z,40.40
2022-12-22T16:22:34.775Z,37.40
2022-12-22T16:25:09.713Z,35.57
2022-12-22T16:27:38.695Z,40.10
2022-12-22T16:30:20.059Z,47.40
2022-12-22T16:32:49.441Z,55.23
2022-12-22T16:35:33.542Z,73.83
2022-12-22T16:38:42.276Z,96.83
2022-12-22T16:41:26.760Z,101.07
2022-12-22T16:44:05.507Z,101.87
2022-12-22T16:46:40.140Z,103.13
2022-12-22T16:49:10.339Z,116.57
2022-12-22T16:51:49.012Z,111.13
2022-12-22T16:54:17.482Z,104.83
2022-12-22T16:56:48.146Z,102.37
2022-12-22T16:59:18.423Z,108.63
2022-12-22T17:01:54.520Z,104.90
2022-12-22T17:04:52.130Z,104.87
2022-12-22T17:07:20.305Z,99.73
2022-12-22T17:09:57.579Z,94.70
2022-12-22T17:12:30.253Z,93.03
2022-12-22T17:15:00.287Z,87.73
2022-12-22T17:17:33.116Z,81.70
2022-12-22T17:20:05.438Z,85.70
2022-12-22T17:22:35.760Z,84.87
2022-12-22T17:25:07.987Z,82.50
2022-12-22T17:27:42.552Z,77.47
2022-12-22T17:30:25.994Z,70.43
2022-12-22T17:32:55.326Z,64.03
2022-12-22T17:35:29.010Z,69.13
2022-12-22T17:38:17.903Z,113.83
2022-12-22T17:40:47.066Z,113.30
2022-12-22T17:43:20.223Z,125.67
2022-12-22T17:45:50.692Z,128.87
2022-12-22T17:48:18.616Z,128.77
2022-12-22T17:50:50.800Z,130.60
2022-12-22T17:53:41.999Z,127.03
2022-12-22T17:56:24.065Z,127.33
2022-12-22T17:58:55.989Z,109.57
2022-12-22T18:01:32.128Z,101.23
2022-12-22T18:04:03.138Z,86.93
2022-12-22T18:06:48.409Z,87.07
2022-12-22T18:09:22.242Z,79.43
2022-12-22T18:11:51.136Z,78.73
2022-12-22T18:14:22.630Z,76.87
2022-12-22T18:16:50.817Z,76.83
2022-12-22T18:19:28.122Z,82.00
2022-12-22T18:22:21.003Z,84.17
2022-12-22T18:24:53.241Z,79.70
2022-12-22T18:27:22.365Z,70.53
2022-12-22T18:29:51.148Z,61.93
2022-12-22T18:32:27.511Z,60.77
2022-12-22T18:34:58.602Z,54.23
2022-12-22T18:37:29.906Z,47.87
2022-12-22T18:40:26.249Z,42.57
2022-12-22T18:42:59.680Z,40.87
2022-12-22T18:45:32.048Z,40.40
2022-12-22T18:48:07.689Z,38.90
2022-12-22T18:50:35.725Z,54.90
2022-12-22T18:53:27.536Z,64.87
2022-12-22T18:55:59.594Z,58.57
2022-12-22T18:58:29.105Z,51.03
2022-12-22T19:01:04.720Z,50.77
2022-12-22T19:03:35.793Z,76.23
2022-12-22T19:06:08.964Z,63.80
2022-12-22T19:08:45.643Z,78.60
2022-12-22T19:11:24.762Z,76.93
2022-12-22T19:13:55.684Z,74.43
2022-12-22T19:16:50.039Z,62.10
2022-12-22T19:19:24.222Z,57.33
2022-12-22T19:21:55.779Z,109.20
2022-12-22T19:24:26.673Z,108.47
2022-12-22T19:27:03.597Z,90.13
2022-12-22T19:29:31.954Z,75.03
2022-12-22T19:32:07.198Z,76.87
2022-12-22T19:34:35.018Z,83.17
2022-12-22T19:37:03.634Z,81.47
2022-12-22T19:39:31.303Z,83.57
2022-12-22T19:41:59.863Z,81.03
2022-12-22T19:44:31.016Z,82.60
2022-12-22T19:47:00.895Z,77.73
2022-12-22T19:49:29.690Z,68.53
2022-12-22T19:51:58.124Z,62.50
2022-12-22T19:54:26.113Z,48.63
2022-12-22T19:56:59.446Z,45.00
2022-12-22T19:59:49.762Z,46.30
2022-12-22T20:02:29.539Z,39.80
2022-12-22T20:05:02.525Z,38.40
2022-12-22T20:07:39.107Z,38.10
2022-12-22T20:10:09.994Z,33.50
2022-12-22T20:12:42.398Z,31.03
2022-12-22T20:15:21.796Z,28.43
2022-12-22T20:17:52.165Z,25.47
2022-12-22T20:20:30.487Z,22.73
2022-12-22T20:23:07.377Z,19.37
2022-12-22T20:25:42.606Z,15.50
2022-12-22T20:28:34.540Z,18.20
2022-12-22T20:31:03.292Z,18.87
2022-12-22T20:33:34.321Z,21.10
2022-12-22T20:36:04.166Z,25.30
2022-12-22T20:38:42.192Z,26.73
2022-12-22T20:41:10.855Z,24.90
2022-12-22T20:43:39.671Z,23.13
2022-12-22T20:46:27.638Z,33.27
2022-12-22T20:49:04.562Z,41.43
2022-12-22T20:51:40.516Z,47.93
2022-12-22T20:54:09.707Z,49.80
2022-12-22T20:56:39.793Z,48.60
2022-12-22T20:59:22.825Z,71.03
2022-12-22T21:01:53.022Z,61.00
2022-12-22T21:04:22.369Z,72.40
2022-12-22T21:06:56.408Z,71.90
2022-12-22T21:09:25.616Z,61.90
2022-12-22T21:12:13.130Z,65.20
2022-12-22T21:14:40.763Z,58.77
2022-12-22T21:17:18.053Z,58.43
2022-12-22T21:19:46.941Z,46.73
2022-12-22T21:22:15.883Z,41.37
2022-12-22T21:24:44.008Z,39.80
2022-12-22T21:27:22.515Z,48.97
2022-12-22T21:29:50.004Z,58.17
2022-12-22T21:32:37.569Z,63.70
2022-12-22T21:35:08.468Z,54.63
2022-12-22T21:37:36.230Z,51.50
2022-12-22T21:40:04.068Z,48.13
2022-12-22T21:42:31.678Z,49.30
2022-12-22T21:45:00.660Z,44.47
2022-12-22T21:47:28.185Z,45.47
2022-12-22T21:49:55.719Z,42.07
2022-12-22T21:52:23.250Z,41.93
2022-12-22T21:54:51.892Z,45.07
2022-12-22T21:57:20.817Z,46.30
2022-12-22T21:59:48.405Z,45.83
2022-12-22T22:02:18.986Z,44.73
2022-12-22T22:04:52.056Z,39.13
2022-12-22T22:07:22.424Z,39.13
2022-12-22T22:09:49.944Z,39.33
2022-12-22T22:12:32.503Z,38.80
2022-12-22T22:15:01.965Z,39.43
2022-12-22T22:17:29.764Z,40.43
2022-12-22T22:19:57.288Z,40.10
2022-12-22T22:22:25.795Z,45.17
2022-12-22T22:24:53.810Z,42.87
2022-12-22T22:27:21.494Z,44.50
2022-12-22T22:29:49.182Z,43.77
2022-12-22T22:32:17.081Z,46.83
2022-12-22T22:34:44.599Z,44.23
2022-12-22T22:37:12.182Z,48.77
2022-12-22T22:39:39.753Z,49.47
2022-12-22T22:42:07.667Z,51.47
2022-12-22T22:44:35.171Z,44.60
2022-12-22T22:47:02.811Z,44.07
2022-12-22T22:49:30.425Z,44.27
2022-12-22T22:51:57.956Z,42.20
2022-12-22T22:54:25.587Z,42.23
2022-12-22T22:56:53.962Z,39.03
2022-12-22T22:59:21.475Z,38.47
2022-12-22T23:01:49.032Z,42.00
2022-12-22T23:04:16.776Z,43.77
2022-12-22T23:06:44.882Z,31.90
2022-12-22T23:09:12.450Z,39.50
2022-12-22T23:11:39.922Z,38.50
2022-12-22T23:14:07.483Z,37.00
2022-12-22T23:16:38.466Z,36.53
2022-12-22T23:19:07.285Z,36.50
2022-12-22T23:21:35.232Z,35.43
2022-12-22T23:24:05.737Z,35.33
2022-12-22T23:26:33.497Z,36.03
2022-12-22T23:29:03.740Z,36.63
2022-12-22T23:31:34.000Z,36.03
2022-12-22T23:34:01.748Z,34.37
2022-12-22T23:36:29.346Z,37.17
2022-12-22T23:38:56.871Z,35.60
2022-12-22T23:41:28.505Z,36.20
2022-12-22T23:43:57.970Z,34.90
2022-12-22T23:46:25.619Z,37.17
2022-12-22T23:48:57.447Z,38.40
2022-12-22T23:51:28.801Z,41.50
2022-12-22T23:53:58.459Z,38.67
2022-12-22T23:56:26.151Z,41.10
2022-12-22T23:58:55.144Z,40.17
